<?xml version="1.0" encoding="UTF-8" standalone="no" ?>
<gpx xmlns="http://www.topografix.com/GPX/1/1" xmlns:xsi="http://www.w3.org/2001/XMLSchema-instance" xsi:schemaLocation="http://www.topografix.com/GPX/1/1 http://www.topografix.com/GPX/1/1/gpx.xsd" version="1.1" creator="VisuGPX - https://www.visugpx.com">
  <metadata>
    <name>Le Puech de Luzergue</name>
  </metadata>
  <wpt lat="44.20248" lon="3.08821">
    <ele>584</ele>
    <name><![CDATA[Bas-côté de la route avant Serres]]></name>
  </wpt>
  <wpt lat="44.1973" lon="3.10137">
    <ele>594</ele>
    <name><![CDATA[Bifurcation de la boucle]]></name>
  </wpt>
  <wpt lat="44.19239" lon="3.10976">
    <ele>610</ele>
    <name><![CDATA[Château de Lugagnac]]></name>
  </wpt>
  <wpt lat="44.18875" lon="3.11508">
    <ele>609</ele>
    <name><![CDATA[Les Graves]]></name>
  </wpt>
  <wpt lat="44.17045" lon="3.10694">
    <ele>589</ele>
    <name><![CDATA[Jonction avec une route après Soulacroup]]></name>
  </wpt>
  <wpt lat="44.16343" lon="3.0966">
    <ele>465</ele>
    <name><![CDATA[Sortie de Compeyre]]></name>
  </wpt>
  <wpt lat="44.16759" lon="3.09197">
    <ele>478</ele>
    <name><![CDATA[Route à gauche]]></name>
  </wpt>
  <wpt lat="44.16996" lon="3.09154">
    <ele>490</ele>
    <name><![CDATA[Chemin à droite]]></name>
  </wpt>
  <wpt lat="44.1755" lon="3.09306">
    <ele>576</ele>
    <name><![CDATA[Chemin vers la retenue d'eau]]></name>
  </wpt>
  <wpt lat="44.18352" lon="3.08325">
    <ele>540</ele>
    <name><![CDATA[Château de Cabrières]]></name>
  </wpt>
  <wpt lat="44.19342" lon="3.08714">
    <ele>566</ele>
    <name><![CDATA[Retour sur la route]]></name>
  </wpt>
  <wpt lat="44.19222" lon="3.08969">
    <ele>582</ele>
    <name><![CDATA[Chemin avant Aldiguiès]]></name>
  </wpt>
  <wpt lat="44.2025" lon="3.08823">
    <ele>585</ele>
    <name><![CDATA[Bas-côté de la route avant Serres]]></name>
  </wpt>
  <trk>
    <name><![CDATA[Le Puech de Luzergue]]></name>
    <trkseg>
      <trkpt lat="44.20248" lon="3.08821">
        <ele>584</ele>
        <time>2019-10-21T10:16:11+02:00</time>
      </trkpt>
      <trkpt lat="44.20224" lon="3.08937">
        <ele>586</ele>
        <time>2019-10-21T10:16:16+02:00</time>
      </trkpt>
      <trkpt lat="44.20212" lon="3.09164">
        <ele>603</ele>
        <time>2019-10-21T10:16:21+02:00</time>
      </trkpt>
      <trkpt lat="44.20195" lon="3.09276">
        <ele>608</ele>
        <time>2019-10-21T10:16:26+02:00</time>
      </trkpt>
      <trkpt lat="44.20162" lon="3.09409">
        <ele>613</ele>
        <time>2019-10-21T10:16:31+02:00</time>
      </trkpt>
      <trkpt lat="44.2017" lon="3.0945">
        <ele>615</ele>
        <time>2019-10-21T10:16:36+02:00</time>
      </trkpt>
      <trkpt lat="44.20147" lon="3.09559">
        <ele>612</ele>
        <time>2019-10-21T10:16:41+02:00</time>
      </trkpt>
      <trkpt lat="44.20129" lon="3.09628">
        <ele>609</ele>
        <time>2019-10-21T10:16:46+02:00</time>
      </trkpt>
      <trkpt lat="44.20129" lon="3.09656">
        <ele>608</ele>
        <time>2019-10-21T10:16:51+02:00</time>
      </trkpt>
      <trkpt lat="44.20069" lon="3.09733">
        <ele>599</ele>
        <time>2019-10-21T10:16:56+02:00</time>
      </trkpt>
      <trkpt lat="44.20035" lon="3.09752">
        <ele>593</ele>
        <time>2019-10-21T10:17:01+02:00</time>
      </trkpt>
      <trkpt lat="44.20002" lon="3.09765">
        <ele>589</ele>
        <time>2019-10-21T10:17:06+02:00</time>
      </trkpt>
      <trkpt lat="44.19987" lon="3.09795">
        <ele>590</ele>
        <time>2019-10-21T10:17:11+02:00</time>
      </trkpt>
      <trkpt lat="44.19936" lon="3.09813">
        <ele>589</ele>
        <time>2019-10-21T10:17:16+02:00</time>
      </trkpt>
      <trkpt lat="44.19918" lon="3.09851">
        <ele>590</ele>
        <time>2019-10-21T10:17:21+02:00</time>
      </trkpt>
      <trkpt lat="44.19916" lon="3.09931">
        <ele>594</ele>
        <time>2019-10-21T10:17:26+02:00</time>
      </trkpt>
      <trkpt lat="44.19879" lon="3.09986">
        <ele>598</ele>
        <time>2019-10-21T10:17:31+02:00</time>
      </trkpt>
      <trkpt lat="44.19792" lon="3.10074">
        <ele>597</ele>
        <time>2019-10-21T10:17:36+02:00</time>
      </trkpt>
      <trkpt lat="44.1973" lon="3.10137">
        <ele>594</ele>
        <time>2019-10-21T10:17:41+02:00</time>
      </trkpt>
      <trkpt lat="44.19675" lon="3.10216">
        <ele>592</ele>
        <time>2019-10-21T10:17:46+02:00</time>
      </trkpt>
      <trkpt lat="44.19612" lon="3.10377">
        <ele>596</ele>
        <time>2019-10-21T10:17:51+02:00</time>
      </trkpt>
      <trkpt lat="44.19596" lon="3.10411">
        <ele>596</ele>
        <time>2019-10-21T10:17:56+02:00</time>
      </trkpt>
      <trkpt lat="44.19561" lon="3.10467">
        <ele>603</ele>
        <time>2019-10-21T10:18:01+02:00</time>
      </trkpt>
      <trkpt lat="44.19556" lon="3.10493">
        <ele>603</ele>
        <time>2019-10-21T10:18:06+02:00</time>
      </trkpt>
      <trkpt lat="44.19556" lon="3.10553">
        <ele>602</ele>
        <time>2019-10-21T10:18:11+02:00</time>
      </trkpt>
      <trkpt lat="44.19542" lon="3.10591">
        <ele>604</ele>
        <time>2019-10-21T10:18:16+02:00</time>
      </trkpt>
      <trkpt lat="44.19522" lon="3.10626">
        <ele>603</ele>
        <time>2019-10-21T10:18:21+02:00</time>
      </trkpt>
      <trkpt lat="44.19496" lon="3.10647">
        <ele>605</ele>
        <time>2019-10-21T10:18:26+02:00</time>
      </trkpt>
      <trkpt lat="44.19416" lon="3.10656">
        <ele>614</ele>
        <time>2019-10-21T10:18:31+02:00</time>
      </trkpt>
      <trkpt lat="44.19385" lon="3.10669">
        <ele>617</ele>
        <time>2019-10-21T10:18:36+02:00</time>
      </trkpt>
      <trkpt lat="44.19358" lon="3.10712">
        <ele>618</ele>
        <time>2019-10-21T10:18:41+02:00</time>
      </trkpt>
      <trkpt lat="44.1933" lon="3.10778">
        <ele>617</ele>
        <time>2019-10-21T10:18:46+02:00</time>
      </trkpt>
      <trkpt lat="44.19293" lon="3.10825">
        <ele>618</ele>
        <time>2019-10-21T10:18:51+02:00</time>
      </trkpt>
      <trkpt lat="44.19273" lon="3.10907">
        <ele>613</ele>
        <time>2019-10-21T10:18:56+02:00</time>
      </trkpt>
      <trkpt lat="44.19239" lon="3.10976">
        <ele>610</ele>
        <time>2019-10-21T10:19:01+02:00</time>
      </trkpt>
      <trkpt lat="44.19216" lon="3.10984">
        <ele>611</ele>
        <time>2019-10-21T10:19:06+02:00</time>
      </trkpt>
      <trkpt lat="44.19201" lon="3.11023">
        <ele>610</ele>
        <time>2019-10-21T10:19:11+02:00</time>
      </trkpt>
      <trkpt lat="44.1919" lon="3.11109">
        <ele>604</ele>
        <time>2019-10-21T10:19:16+02:00</time>
      </trkpt>
      <trkpt lat="44.19159" lon="3.11149">
        <ele>601</ele>
        <time>2019-10-21T10:19:21+02:00</time>
      </trkpt>
      <trkpt lat="44.19121" lon="3.11136">
        <ele>608</ele>
        <time>2019-10-21T10:19:26+02:00</time>
      </trkpt>
      <trkpt lat="44.19081" lon="3.11156">
        <ele>611</ele>
        <time>2019-10-21T10:19:31+02:00</time>
      </trkpt>
      <trkpt lat="44.19039" lon="3.11244">
        <ele>611</ele>
        <time>2019-10-21T10:19:36+02:00</time>
      </trkpt>
      <trkpt lat="44.19032" lon="3.1134">
        <ele>608</ele>
        <time>2019-10-21T10:19:41+02:00</time>
      </trkpt>
      <trkpt lat="44.18999" lon="3.1142">
        <ele>610</ele>
        <time>2019-10-21T10:19:46+02:00</time>
      </trkpt>
      <trkpt lat="44.18975" lon="3.11439">
        <ele>611</ele>
        <time>2019-10-21T10:19:51+02:00</time>
      </trkpt>
      <trkpt lat="44.18932" lon="3.11469">
        <ele>609</ele>
        <time>2019-10-21T10:19:56+02:00</time>
      </trkpt>
      <trkpt lat="44.18875" lon="3.11508">
        <ele>609</ele>
        <time>2019-10-21T10:20:01+02:00</time>
      </trkpt>
      <trkpt lat="44.18832" lon="3.11512">
        <ele>617</ele>
        <time>2019-10-21T10:20:06+02:00</time>
      </trkpt>
      <trkpt lat="44.18781" lon="3.11559">
        <ele>614</ele>
        <time>2019-10-21T10:20:11+02:00</time>
      </trkpt>
      <trkpt lat="44.18724" lon="3.11585">
        <ele>619</ele>
        <time>2019-10-21T10:20:16+02:00</time>
      </trkpt>
      <trkpt lat="44.18673" lon="3.11626">
        <ele>620</ele>
        <time>2019-10-21T10:20:21+02:00</time>
      </trkpt>
      <trkpt lat="44.18648" lon="3.11666">
        <ele>611</ele>
        <time>2019-10-21T10:20:26+02:00</time>
      </trkpt>
      <trkpt lat="44.18633" lon="3.11694">
        <ele>607</ele>
        <time>2019-10-21T10:20:31+02:00</time>
      </trkpt>
      <trkpt lat="44.18568" lon="3.11701">
        <ele>607</ele>
        <time>2019-10-21T10:20:36+02:00</time>
      </trkpt>
      <trkpt lat="44.18541" lon="3.11694">
        <ele>605</ele>
        <time>2019-10-21T10:20:41+02:00</time>
      </trkpt>
      <trkpt lat="44.18473" lon="3.11591">
        <ele>610</ele>
        <time>2019-10-21T10:20:46+02:00</time>
      </trkpt>
      <trkpt lat="44.18445" lon="3.11559">
        <ele>611</ele>
        <time>2019-10-21T10:20:51+02:00</time>
      </trkpt>
      <trkpt lat="44.18422" lon="3.11548">
        <ele>611</ele>
        <time>2019-10-21T10:20:56+02:00</time>
      </trkpt>
      <trkpt lat="44.18399" lon="3.11499">
        <ele>615</ele>
        <time>2019-10-21T10:21:01+02:00</time>
      </trkpt>
      <trkpt lat="44.18352" lon="3.11463">
        <ele>621</ele>
        <time>2019-10-21T10:21:06+02:00</time>
      </trkpt>
      <trkpt lat="44.18296" lon="3.11441">
        <ele>624</ele>
        <time>2019-10-21T10:21:11+02:00</time>
      </trkpt>
      <trkpt lat="44.18265" lon="3.11445">
        <ele>624</ele>
        <time>2019-10-21T10:21:16+02:00</time>
      </trkpt>
      <trkpt lat="44.1821" lon="3.1146">
        <ele>621</ele>
        <time>2019-10-21T10:21:21+02:00</time>
      </trkpt>
      <trkpt lat="44.18142" lon="3.11433">
        <ele>619</ele>
        <time>2019-10-21T10:21:26+02:00</time>
      </trkpt>
      <trkpt lat="44.18087" lon="3.11441">
        <ele>619</ele>
        <time>2019-10-21T10:21:31+02:00</time>
      </trkpt>
      <trkpt lat="44.18047" lon="3.11439">
        <ele>617</ele>
        <time>2019-10-21T10:21:36+02:00</time>
      </trkpt>
      <trkpt lat="44.18002" lon="3.11415">
        <ele>613</ele>
        <time>2019-10-21T10:21:41+02:00</time>
      </trkpt>
      <trkpt lat="44.17944" lon="3.11375">
        <ele>611</ele>
        <time>2019-10-21T10:21:46+02:00</time>
      </trkpt>
      <trkpt lat="44.17873" lon="3.11336">
        <ele>605</ele>
        <time>2019-10-21T10:21:51+02:00</time>
      </trkpt>
      <trkpt lat="44.17848" lon="3.11321">
        <ele>605</ele>
        <time>2019-10-21T10:21:56+02:00</time>
      </trkpt>
      <trkpt lat="44.17761" lon="3.11334">
        <ele>593</ele>
        <time>2019-10-21T10:22:01+02:00</time>
      </trkpt>
      <trkpt lat="44.17722" lon="3.11321">
        <ele>592</ele>
        <time>2019-10-21T10:22:06+02:00</time>
      </trkpt>
      <trkpt lat="44.1759" lon="3.11244">
        <ele>586</ele>
        <time>2019-10-21T10:22:11+02:00</time>
      </trkpt>
      <trkpt lat="44.17548" lon="3.11229">
        <ele>586</ele>
        <time>2019-10-21T10:22:16+02:00</time>
      </trkpt>
      <trkpt lat="44.17513" lon="3.11259">
        <ele>581</ele>
        <time>2019-10-21T10:22:21+02:00</time>
      </trkpt>
      <trkpt lat="44.17482" lon="3.1125">
        <ele>577</ele>
        <time>2019-10-21T10:22:26+02:00</time>
      </trkpt>
      <trkpt lat="44.17424" lon="3.11162">
        <ele>575</ele>
        <time>2019-10-21T10:22:31+02:00</time>
      </trkpt>
      <trkpt lat="44.1739" lon="3.11102">
        <ele>577</ele>
        <time>2019-10-21T10:22:36+02:00</time>
      </trkpt>
      <trkpt lat="44.17344" lon="3.11076">
        <ele>573</ele>
        <time>2019-10-21T10:22:41+02:00</time>
      </trkpt>
      <trkpt lat="44.17279" lon="3.1104">
        <ele>569</ele>
        <time>2019-10-21T10:22:46+02:00</time>
      </trkpt>
      <trkpt lat="44.17247" lon="3.11003">
        <ele>571</ele>
        <time>2019-10-21T10:22:51+02:00</time>
      </trkpt>
      <trkpt lat="44.17187" lon="3.10988">
        <ele>574</ele>
        <time>2019-10-21T10:22:56+02:00</time>
      </trkpt>
      <trkpt lat="44.17171" lon="3.10973">
        <ele>576</ele>
        <time>2019-10-21T10:23:01+02:00</time>
      </trkpt>
      <trkpt lat="44.1715" lon="3.10928">
        <ele>578</ele>
        <time>2019-10-21T10:23:06+02:00</time>
      </trkpt>
      <trkpt lat="44.17087" lon="3.10866">
        <ele>581</ele>
        <time>2019-10-21T10:23:11+02:00</time>
      </trkpt>
      <trkpt lat="44.17071" lon="3.10832">
        <ele>582</ele>
        <time>2019-10-21T10:23:16+02:00</time>
      </trkpt>
      <trkpt lat="44.17059" lon="3.10772">
        <ele>584</ele>
        <time>2019-10-21T10:23:21+02:00</time>
      </trkpt>
      <trkpt lat="44.17045" lon="3.10694">
        <ele>589</ele>
        <time>2019-10-21T10:23:26+02:00</time>
      </trkpt>
      <trkpt lat="44.17031" lon="3.10682">
        <ele>588</ele>
        <time>2019-10-21T10:23:31+02:00</time>
      </trkpt>
      <trkpt lat="44.16982" lon="3.10645">
        <ele>586</ele>
        <time>2019-10-21T10:23:36+02:00</time>
      </trkpt>
      <trkpt lat="44.16954" lon="3.10587">
        <ele>591</ele>
        <time>2019-10-21T10:23:41+02:00</time>
      </trkpt>
      <trkpt lat="44.16926" lon="3.10551">
        <ele>591</ele>
        <time>2019-10-21T10:23:46+02:00</time>
      </trkpt>
      <trkpt lat="44.16906" lon="3.10531">
        <ele>590</ele>
        <time>2019-10-21T10:23:51+02:00</time>
      </trkpt>
      <trkpt lat="44.16897" lon="3.10501">
        <ele>591</ele>
        <time>2019-10-21T10:23:56+02:00</time>
      </trkpt>
      <trkpt lat="44.16899" lon="3.10422">
        <ele>585</ele>
        <time>2019-10-21T10:24:01+02:00</time>
      </trkpt>
      <trkpt lat="44.16891" lon="3.10373">
        <ele>576</ele>
        <time>2019-10-21T10:24:06+02:00</time>
      </trkpt>
      <trkpt lat="44.16886" lon="3.10315">
        <ele>568</ele>
        <time>2019-10-21T10:24:11+02:00</time>
      </trkpt>
      <trkpt lat="44.16856" lon="3.10263">
        <ele>559</ele>
        <time>2019-10-21T10:24:16+02:00</time>
      </trkpt>
      <trkpt lat="44.16813" lon="3.10194">
        <ele>551</ele>
        <time>2019-10-21T10:24:21+02:00</time>
      </trkpt>
      <trkpt lat="44.16799" lon="3.10164">
        <ele>549</ele>
        <time>2019-10-21T10:24:26+02:00</time>
      </trkpt>
      <trkpt lat="44.16806" lon="3.10044">
        <ele>556</ele>
        <time>2019-10-21T10:24:31+02:00</time>
      </trkpt>
      <trkpt lat="44.168" lon="3.09997">
        <ele>558</ele>
        <time>2019-10-21T10:24:36+02:00</time>
      </trkpt>
      <trkpt lat="44.16771" lon="3.10023">
        <ele>557</ele>
        <time>2019-10-21T10:24:41+02:00</time>
      </trkpt>
      <trkpt lat="44.16688" lon="3.10061">
        <ele>552</ele>
        <time>2019-10-21T10:24:46+02:00</time>
      </trkpt>
      <trkpt lat="44.16649" lon="3.10104">
        <ele>540</ele>
        <time>2019-10-21T10:24:51+02:00</time>
      </trkpt>
      <trkpt lat="44.16626" lon="3.10117">
        <ele>536</ele>
        <time>2019-10-21T10:24:56+02:00</time>
      </trkpt>
      <trkpt lat="44.16569" lon="3.10137">
        <ele>528</ele>
        <time>2019-10-21T10:25:01+02:00</time>
      </trkpt>
      <trkpt lat="44.16562" lon="3.1016">
        <ele>520</ele>
        <time>2019-10-21T10:25:06+02:00</time>
      </trkpt>
      <trkpt lat="44.16525" lon="3.1013">
        <ele>526</ele>
        <time>2019-10-21T10:25:11+02:00</time>
      </trkpt>
      <trkpt lat="44.16452" lon="3.10106">
        <ele>521</ele>
        <time>2019-10-21T10:25:16+02:00</time>
      </trkpt>
      <trkpt lat="44.16406" lon="3.101">
        <ele>514</ele>
        <time>2019-10-21T10:25:21+02:00</time>
      </trkpt>
      <trkpt lat="44.16325" lon="3.10177">
        <ele>503</ele>
        <time>2019-10-21T10:25:26+02:00</time>
      </trkpt>
      <trkpt lat="44.16288" lon="3.10214">
        <ele>500</ele>
        <time>2019-10-21T10:25:31+02:00</time>
      </trkpt>
      <trkpt lat="44.16218" lon="3.10237">
        <ele>498</ele>
        <time>2019-10-21T10:25:36+02:00</time>
      </trkpt>
      <trkpt lat="44.16209" lon="3.10222">
        <ele>498</ele>
        <time>2019-10-21T10:25:41+02:00</time>
      </trkpt>
      <trkpt lat="44.16197" lon="3.10164">
        <ele>501</ele>
        <time>2019-10-21T10:25:46+02:00</time>
      </trkpt>
      <trkpt lat="44.16191" lon="3.10128">
        <ele>499</ele>
        <time>2019-10-21T10:25:51+02:00</time>
      </trkpt>
      <trkpt lat="44.16181" lon="3.10085">
        <ele>496</ele>
        <time>2019-10-21T10:25:56+02:00</time>
      </trkpt>
      <trkpt lat="44.16175" lon="3.10051">
        <ele>489</ele>
        <time>2019-10-21T10:26:01+02:00</time>
      </trkpt>
      <trkpt lat="44.16185" lon="3.10025">
        <ele>487</ele>
        <time>2019-10-21T10:26:06+02:00</time>
      </trkpt>
      <trkpt lat="44.16221" lon="3.09971">
        <ele>483</ele>
        <time>2019-10-21T10:26:11+02:00</time>
      </trkpt>
      <trkpt lat="44.16232" lon="3.09915">
        <ele>476</ele>
        <time>2019-10-21T10:26:16+02:00</time>
      </trkpt>
      <trkpt lat="44.1624" lon="3.09888">
        <ele>471</ele>
        <time>2019-10-21T10:26:21+02:00</time>
      </trkpt>
      <trkpt lat="44.16272" lon="3.09847">
        <ele>470</ele>
        <time>2019-10-21T10:26:26+02:00</time>
      </trkpt>
      <trkpt lat="44.16291" lon="3.09789">
        <ele>467</ele>
        <time>2019-10-21T10:26:31+02:00</time>
      </trkpt>
      <trkpt lat="44.16311" lon="3.09733">
        <ele>466</ele>
        <time>2019-10-21T10:26:36+02:00</time>
      </trkpt>
      <trkpt lat="44.16315" lon="3.09677">
        <ele>461</ele>
        <time>2019-10-21T10:26:41+02:00</time>
      </trkpt>
      <trkpt lat="44.16343" lon="3.0966">
        <ele>465</ele>
        <time>2019-10-21T10:26:46+02:00</time>
      </trkpt>
      <trkpt lat="44.16363" lon="3.09604">
        <ele>461</ele>
        <time>2019-10-21T10:26:51+02:00</time>
      </trkpt>
      <trkpt lat="44.16369" lon="3.09527">
        <ele>452</ele>
        <time>2019-10-21T10:26:56+02:00</time>
      </trkpt>
      <trkpt lat="44.1638" lon="3.09493">
        <ele>450</ele>
        <time>2019-10-21T10:27:01+02:00</time>
      </trkpt>
      <trkpt lat="44.16392" lon="3.09431">
        <ele>445</ele>
        <time>2019-10-21T10:27:06+02:00</time>
      </trkpt>
      <trkpt lat="44.16402" lon="3.0939">
        <ele>442</ele>
        <time>2019-10-21T10:27:11+02:00</time>
      </trkpt>
      <trkpt lat="44.16428" lon="3.09325">
        <ele>438</ele>
        <time>2019-10-21T10:27:16+02:00</time>
      </trkpt>
      <trkpt lat="44.16435" lon="3.09289">
        <ele>438</ele>
        <time>2019-10-21T10:27:21+02:00</time>
      </trkpt>
      <trkpt lat="44.16435" lon="3.09248">
        <ele>437</ele>
        <time>2019-10-21T10:27:26+02:00</time>
      </trkpt>
      <trkpt lat="44.16472" lon="3.09177">
        <ele>442</ele>
        <time>2019-10-21T10:27:31+02:00</time>
      </trkpt>
      <trkpt lat="44.16511" lon="3.09167">
        <ele>445</ele>
        <time>2019-10-21T10:27:36+02:00</time>
      </trkpt>
      <trkpt lat="44.16534" lon="3.09137">
        <ele>449</ele>
        <time>2019-10-21T10:27:41+02:00</time>
      </trkpt>
      <trkpt lat="44.16554" lon="3.09122">
        <ele>452</ele>
        <time>2019-10-21T10:27:46+02:00</time>
      </trkpt>
      <trkpt lat="44.16554" lon="3.09089">
        <ele>452</ele>
        <time>2019-10-21T10:27:51+02:00</time>
      </trkpt>
      <trkpt lat="44.16526" lon="3.09051">
        <ele>451</ele>
        <time>2019-10-21T10:27:56+02:00</time>
      </trkpt>
      <trkpt lat="44.16519" lon="3.09031">
        <ele>452</ele>
        <time>2019-10-21T10:28:01+02:00</time>
      </trkpt>
      <trkpt lat="44.16523" lon="3.08993">
        <ele>454</ele>
        <time>2019-10-21T10:28:06+02:00</time>
      </trkpt>
      <trkpt lat="44.16549" lon="3.09006">
        <ele>457</ele>
        <time>2019-10-21T10:28:11+02:00</time>
      </trkpt>
      <trkpt lat="44.16626" lon="3.09006">
        <ele>466</ele>
        <time>2019-10-21T10:28:16+02:00</time>
      </trkpt>
      <trkpt lat="44.16636" lon="3.09023">
        <ele>467</ele>
        <time>2019-10-21T10:28:21+02:00</time>
      </trkpt>
      <trkpt lat="44.16656" lon="3.09087">
        <ele>467</ele>
        <time>2019-10-21T10:28:26+02:00</time>
      </trkpt>
      <trkpt lat="44.16697" lon="3.09137">
        <ele>471</ele>
        <time>2019-10-21T10:28:31+02:00</time>
      </trkpt>
      <trkpt lat="44.16759" lon="3.09197">
        <ele>478</ele>
        <time>2019-10-21T10:28:36+02:00</time>
      </trkpt>
      <trkpt lat="44.16793" lon="3.09225">
        <ele>481</ele>
        <time>2019-10-21T10:28:41+02:00</time>
      </trkpt>
      <trkpt lat="44.16888" lon="3.09205">
        <ele>486</ele>
        <time>2019-10-21T10:28:46+02:00</time>
      </trkpt>
      <trkpt lat="44.1694" lon="3.09134">
        <ele>483</ele>
        <time>2019-10-21T10:28:51+02:00</time>
      </trkpt>
      <trkpt lat="44.16956" lon="3.09134">
        <ele>485</ele>
        <time>2019-10-21T10:28:56+02:00</time>
      </trkpt>
      <trkpt lat="44.16973" lon="3.09164">
        <ele>489</ele>
        <time>2019-10-21T10:29:01+02:00</time>
      </trkpt>
      <trkpt lat="44.16996" lon="3.09154">
        <ele>490</ele>
        <time>2019-10-21T10:29:06+02:00</time>
      </trkpt>
      <trkpt lat="44.17045" lon="3.09188">
        <ele>499</ele>
        <time>2019-10-21T10:29:11+02:00</time>
      </trkpt>
      <trkpt lat="44.17079" lon="3.09216">
        <ele>504</ele>
        <time>2019-10-21T10:29:16+02:00</time>
      </trkpt>
      <trkpt lat="44.171" lon="3.09205">
        <ele>508</ele>
        <time>2019-10-21T10:29:21+02:00</time>
      </trkpt>
      <trkpt lat="44.17131" lon="3.09169">
        <ele>514</ele>
        <time>2019-10-21T10:29:26+02:00</time>
      </trkpt>
      <trkpt lat="44.17148" lon="3.09173">
        <ele>518</ele>
        <time>2019-10-21T10:29:31+02:00</time>
      </trkpt>
      <trkpt lat="44.17159" lon="3.09179">
        <ele>520</ele>
        <time>2019-10-21T10:29:36+02:00</time>
      </trkpt>
      <trkpt lat="44.17174" lon="3.09175">
        <ele>523</ele>
        <time>2019-10-21T10:29:41+02:00</time>
      </trkpt>
      <trkpt lat="44.172" lon="3.09214">
        <ele>527</ele>
        <time>2019-10-21T10:29:46+02:00</time>
      </trkpt>
      <trkpt lat="44.17216" lon="3.09182">
        <ele>533</ele>
        <time>2019-10-21T10:29:51+02:00</time>
      </trkpt>
      <trkpt lat="44.17227" lon="3.0916">
        <ele>538</ele>
        <time>2019-10-21T10:29:56+02:00</time>
      </trkpt>
      <trkpt lat="44.1725" lon="3.09137">
        <ele>546</ele>
        <time>2019-10-21T10:30:01+02:00</time>
      </trkpt>
      <trkpt lat="44.17291" lon="3.09124">
        <ele>551</ele>
        <time>2019-10-21T10:30:06+02:00</time>
      </trkpt>
      <trkpt lat="44.17311" lon="3.09096">
        <ele>556</ele>
        <time>2019-10-21T10:30:11+02:00</time>
      </trkpt>
      <trkpt lat="44.17357" lon="3.09087">
        <ele>558</ele>
        <time>2019-10-21T10:30:16+02:00</time>
      </trkpt>
      <trkpt lat="44.17411" lon="3.09126">
        <ele>559</ele>
        <time>2019-10-21T10:30:21+02:00</time>
      </trkpt>
      <trkpt lat="44.17467" lon="3.09184">
        <ele>562</ele>
        <time>2019-10-21T10:30:26+02:00</time>
      </trkpt>
      <trkpt lat="44.17508" lon="3.09246">
        <ele>573</ele>
        <time>2019-10-21T10:30:31+02:00</time>
      </trkpt>
      <trkpt lat="44.17531" lon="3.09313">
        <ele>577</ele>
        <time>2019-10-21T10:30:36+02:00</time>
      </trkpt>
      <trkpt lat="44.1755" lon="3.09306">
        <ele>576</ele>
        <time>2019-10-21T10:30:41+02:00</time>
      </trkpt>
      <trkpt lat="44.17528" lon="3.09233">
        <ele>567</ele>
        <time>2019-10-21T10:30:46+02:00</time>
      </trkpt>
      <trkpt lat="44.17459" lon="3.09113">
        <ele>553</ele>
        <time>2019-10-21T10:30:51+02:00</time>
      </trkpt>
      <trkpt lat="44.17441" lon="3.09061">
        <ele>551</ele>
        <time>2019-10-21T10:30:56+02:00</time>
      </trkpt>
      <trkpt lat="44.17441" lon="3.08984">
        <ele>543</ele>
        <time>2019-10-21T10:31:01+02:00</time>
      </trkpt>
      <trkpt lat="44.17411" lon="3.08836">
        <ele>527</ele>
        <time>2019-10-21T10:31:06+02:00</time>
      </trkpt>
      <trkpt lat="44.17465" lon="3.08888">
        <ele>530</ele>
        <time>2019-10-21T10:31:11+02:00</time>
      </trkpt>
      <trkpt lat="44.1749" lon="3.08913">
        <ele>528</ele>
        <time>2019-10-21T10:31:16+02:00</time>
      </trkpt>
      <trkpt lat="44.17528" lon="3.08886">
        <ele>531</ele>
        <time>2019-10-21T10:31:21+02:00</time>
      </trkpt>
      <trkpt lat="44.17545" lon="3.08894">
        <ele>533</ele>
        <time>2019-10-21T10:31:26+02:00</time>
      </trkpt>
      <trkpt lat="44.17562" lon="3.0895">
        <ele>534</ele>
        <time>2019-10-21T10:31:31+02:00</time>
      </trkpt>
      <trkpt lat="44.17597" lon="3.08967">
        <ele>536</ele>
        <time>2019-10-21T10:31:36+02:00</time>
      </trkpt>
      <trkpt lat="44.17641" lon="3.09016">
        <ele>536</ele>
        <time>2019-10-21T10:31:41+02:00</time>
      </trkpt>
      <trkpt lat="44.17665" lon="3.09027">
        <ele>537</ele>
        <time>2019-10-21T10:31:46+02:00</time>
      </trkpt>
      <trkpt lat="44.17724" lon="3.09038">
        <ele>539</ele>
        <time>2019-10-21T10:31:51+02:00</time>
      </trkpt>
      <trkpt lat="44.17764" lon="3.09036">
        <ele>541</ele>
        <time>2019-10-21T10:31:56+02:00</time>
      </trkpt>
      <trkpt lat="44.17821" lon="3.09019">
        <ele>544</ele>
        <time>2019-10-21T10:32:01+02:00</time>
      </trkpt>
      <trkpt lat="44.17879" lon="3.09001">
        <ele>544</ele>
        <time>2019-10-21T10:32:06+02:00</time>
      </trkpt>
      <trkpt lat="44.17899" lon="3.09021">
        <ele>545</ele>
        <time>2019-10-21T10:32:11+02:00</time>
      </trkpt>
      <trkpt lat="44.17914" lon="3.09077">
        <ele>549</ele>
        <time>2019-10-21T10:32:16+02:00</time>
      </trkpt>
      <trkpt lat="44.18024" lon="3.09072">
        <ele>538</ele>
        <time>2019-10-21T10:32:21+02:00</time>
      </trkpt>
      <trkpt lat="44.18059" lon="3.09066">
        <ele>533</ele>
        <time>2019-10-21T10:32:26+02:00</time>
      </trkpt>
      <trkpt lat="44.18087" lon="3.09083">
        <ele>530</ele>
        <time>2019-10-21T10:32:31+02:00</time>
      </trkpt>
      <trkpt lat="44.18122" lon="3.09089">
        <ele>522</ele>
        <time>2019-10-21T10:32:36+02:00</time>
      </trkpt>
      <trkpt lat="44.18142" lon="3.09147">
        <ele>524</ele>
        <time>2019-10-21T10:32:41+02:00</time>
      </trkpt>
      <trkpt lat="44.18171" lon="3.09164">
        <ele>522</ele>
        <time>2019-10-21T10:32:46+02:00</time>
      </trkpt>
      <trkpt lat="44.18178" lon="3.09205">
        <ele>525</ele>
        <time>2019-10-21T10:32:51+02:00</time>
      </trkpt>
      <trkpt lat="44.18167" lon="3.0925">
        <ele>525</ele>
        <time>2019-10-21T10:32:56+02:00</time>
      </trkpt>
      <trkpt lat="44.18181" lon="3.0927">
        <ele>528</ele>
        <time>2019-10-21T10:33:01+02:00</time>
      </trkpt>
      <trkpt lat="44.18221" lon="3.09184">
        <ele>531</ele>
        <time>2019-10-21T10:33:06+02:00</time>
      </trkpt>
      <trkpt lat="44.18216" lon="3.09098">
        <ele>524</ele>
        <time>2019-10-21T10:33:11+02:00</time>
      </trkpt>
      <trkpt lat="44.18231" lon="3.09034">
        <ele>519</ele>
        <time>2019-10-21T10:33:16+02:00</time>
      </trkpt>
      <trkpt lat="44.18259" lon="3.08993">
        <ele>515</ele>
        <time>2019-10-21T10:33:21+02:00</time>
      </trkpt>
      <trkpt lat="44.18292" lon="3.08989">
        <ele>517</ele>
        <time>2019-10-21T10:33:26+02:00</time>
      </trkpt>
      <trkpt lat="44.1835" lon="3.09012">
        <ele>527</ele>
        <time>2019-10-21T10:33:31+02:00</time>
      </trkpt>
      <trkpt lat="44.1837" lon="3.0904">
        <ele>533</ele>
        <time>2019-10-21T10:33:36+02:00</time>
      </trkpt>
      <trkpt lat="44.18382" lon="3.09034">
        <ele>532</ele>
        <time>2019-10-21T10:33:41+02:00</time>
      </trkpt>
      <trkpt lat="44.18405" lon="3.09006">
        <ele>527</ele>
        <time>2019-10-21T10:33:46+02:00</time>
      </trkpt>
      <trkpt lat="44.18473" lon="3.08995">
        <ele>530</ele>
        <time>2019-10-21T10:33:51+02:00</time>
      </trkpt>
      <trkpt lat="44.18515" lon="3.08993">
        <ele>533</ele>
        <time>2019-10-21T10:33:56+02:00</time>
      </trkpt>
      <trkpt lat="44.18553" lon="3.08986">
        <ele>535</ele>
        <time>2019-10-21T10:34:01+02:00</time>
      </trkpt>
      <trkpt lat="44.1857" lon="3.09021">
        <ele>537</ele>
        <time>2019-10-21T10:34:06+02:00</time>
      </trkpt>
      <trkpt lat="44.18585" lon="3.09053">
        <ele>541</ele>
        <time>2019-10-21T10:34:11+02:00</time>
      </trkpt>
      <trkpt lat="44.18607" lon="3.09053">
        <ele>541</ele>
        <time>2019-10-21T10:34:16+02:00</time>
      </trkpt>
      <trkpt lat="44.18621" lon="3.09036">
        <ele>541</ele>
        <time>2019-10-21T10:34:21+02:00</time>
      </trkpt>
      <trkpt lat="44.18616" lon="3.09027">
        <ele>541</ele>
        <time>2019-10-21T10:34:26+02:00</time>
      </trkpt>
      <trkpt lat="44.18595" lon="3.08995">
        <ele>537</ele>
        <time>2019-10-21T10:34:31+02:00</time>
      </trkpt>
      <trkpt lat="44.18561" lon="3.08905">
        <ele>536</ele>
        <time>2019-10-21T10:34:36+02:00</time>
      </trkpt>
      <trkpt lat="44.18462" lon="3.08877">
        <ele>531</ele>
        <time>2019-10-21T10:34:41+02:00</time>
      </trkpt>
      <trkpt lat="44.18432" lon="3.08858">
        <ele>530</ele>
        <time>2019-10-21T10:34:46+02:00</time>
      </trkpt>
      <trkpt lat="44.18412" lon="3.08823">
        <ele>532</ele>
        <time>2019-10-21T10:34:51+02:00</time>
      </trkpt>
      <trkpt lat="44.18368" lon="3.0881">
        <ele>529</ele>
        <time>2019-10-21T10:34:56+02:00</time>
      </trkpt>
      <trkpt lat="44.18321" lon="3.08787">
        <ele>525</ele>
        <time>2019-10-21T10:35:01+02:00</time>
      </trkpt>
      <trkpt lat="44.18302" lon="3.08768">
        <ele>522</ele>
        <time>2019-10-21T10:35:06+02:00</time>
      </trkpt>
      <trkpt lat="44.1829" lon="3.08697">
        <ele>528</ele>
        <time>2019-10-21T10:35:11+02:00</time>
      </trkpt>
      <trkpt lat="44.18278" lon="3.08626">
        <ele>533</ele>
        <time>2019-10-21T10:35:16+02:00</time>
      </trkpt>
      <trkpt lat="44.18298" lon="3.08568">
        <ele>540</ele>
        <time>2019-10-21T10:35:21+02:00</time>
      </trkpt>
      <trkpt lat="44.18322" lon="3.08501">
        <ele>544</ele>
        <time>2019-10-21T10:35:26+02:00</time>
      </trkpt>
      <trkpt lat="44.18342" lon="3.08428">
        <ele>545</ele>
        <time>2019-10-21T10:35:31+02:00</time>
      </trkpt>
      <trkpt lat="44.18348" lon="3.08358">
        <ele>542</ele>
        <time>2019-10-21T10:35:36+02:00</time>
      </trkpt>
      <trkpt lat="44.18352" lon="3.08325">
        <ele>540</ele>
        <time>2019-10-21T10:35:41+02:00</time>
      </trkpt>
      <trkpt lat="44.1837" lon="3.08313">
        <ele>540</ele>
        <time>2019-10-21T10:35:46+02:00</time>
      </trkpt>
      <trkpt lat="44.18458" lon="3.08373">
        <ele>545</ele>
        <time>2019-10-21T10:35:51+02:00</time>
      </trkpt>
      <trkpt lat="44.18522" lon="3.08478">
        <ele>552</ele>
        <time>2019-10-21T10:35:56+02:00</time>
      </trkpt>
      <trkpt lat="44.18564" lon="3.08551">
        <ele>551</ele>
        <time>2019-10-21T10:36:01+02:00</time>
      </trkpt>
      <trkpt lat="44.18593" lon="3.08559">
        <ele>550</ele>
        <time>2019-10-21T10:36:06+02:00</time>
      </trkpt>
      <trkpt lat="44.18641" lon="3.08607">
        <ele>549</ele>
        <time>2019-10-21T10:36:11+02:00</time>
      </trkpt>
      <trkpt lat="44.18712" lon="3.08628">
        <ele>543</ele>
        <time>2019-10-21T10:36:16+02:00</time>
      </trkpt>
      <trkpt lat="44.18742" lon="3.08656">
        <ele>542</ele>
        <time>2019-10-21T10:36:21+02:00</time>
      </trkpt>
      <trkpt lat="44.18767" lon="3.08727">
        <ele>543</ele>
        <time>2019-10-21T10:36:26+02:00</time>
      </trkpt>
      <trkpt lat="44.1879" lon="3.08757">
        <ele>543</ele>
        <time>2019-10-21T10:36:31+02:00</time>
      </trkpt>
      <trkpt lat="44.18818" lon="3.08768">
        <ele>543</ele>
        <time>2019-10-21T10:36:36+02:00</time>
      </trkpt>
      <trkpt lat="44.18878" lon="3.08774">
        <ele>546</ele>
        <time>2019-10-21T10:36:41+02:00</time>
      </trkpt>
      <trkpt lat="44.18949" lon="3.08808">
        <ele>553</ele>
        <time>2019-10-21T10:36:46+02:00</time>
      </trkpt>
      <trkpt lat="44.18967" lon="3.08798">
        <ele>554</ele>
        <time>2019-10-21T10:36:51+02:00</time>
      </trkpt>
      <trkpt lat="44.1901" lon="3.08733">
        <ele>558</ele>
        <time>2019-10-21T10:36:56+02:00</time>
      </trkpt>
      <trkpt lat="44.19033" lon="3.08684">
        <ele>560</ele>
        <time>2019-10-21T10:37:01+02:00</time>
      </trkpt>
      <trkpt lat="44.1907" lon="3.08656">
        <ele>561</ele>
        <time>2019-10-21T10:37:06+02:00</time>
      </trkpt>
      <trkpt lat="44.19102" lon="3.08658">
        <ele>564</ele>
        <time>2019-10-21T10:37:11+02:00</time>
      </trkpt>
      <trkpt lat="44.1915" lon="3.08637">
        <ele>565</ele>
        <time>2019-10-21T10:37:16+02:00</time>
      </trkpt>
      <trkpt lat="44.19173" lon="3.08654">
        <ele>567</ele>
        <time>2019-10-21T10:37:21+02:00</time>
      </trkpt>
      <trkpt lat="44.19224" lon="3.08688">
        <ele>567</ele>
        <time>2019-10-21T10:37:26+02:00</time>
      </trkpt>
      <trkpt lat="44.19279" lon="3.08705">
        <ele>566</ele>
        <time>2019-10-21T10:37:31+02:00</time>
      </trkpt>
      <trkpt lat="44.19342" lon="3.08714">
        <ele>566</ele>
        <time>2019-10-21T10:37:36+02:00</time>
      </trkpt>
      <trkpt lat="44.19329" lon="3.08763">
        <ele>569</ele>
        <time>2019-10-21T10:37:41+02:00</time>
      </trkpt>
      <trkpt lat="44.19285" lon="3.08866">
        <ele>577</ele>
        <time>2019-10-21T10:37:46+02:00</time>
      </trkpt>
      <trkpt lat="44.19222" lon="3.08969">
        <ele>582</ele>
        <time>2019-10-21T10:37:51+02:00</time>
      </trkpt>
      <trkpt lat="44.19236" lon="3.09019">
        <ele>587</ele>
        <time>2019-10-21T10:37:56+02:00</time>
      </trkpt>
      <trkpt lat="44.19253" lon="3.09083">
        <ele>592</ele>
        <time>2019-10-21T10:38:01+02:00</time>
      </trkpt>
      <trkpt lat="44.19244" lon="3.09111">
        <ele>591</ele>
        <time>2019-10-21T10:38:06+02:00</time>
      </trkpt>
      <trkpt lat="44.19202" lon="3.09117">
        <ele>586</ele>
        <time>2019-10-21T10:38:11+02:00</time>
      </trkpt>
      <trkpt lat="44.19162" lon="3.09192">
        <ele>587</ele>
        <time>2019-10-21T10:38:16+02:00</time>
      </trkpt>
      <trkpt lat="44.19127" lon="3.09237">
        <ele>588</ele>
        <time>2019-10-21T10:38:21+02:00</time>
      </trkpt>
      <trkpt lat="44.19158" lon="3.09261">
        <ele>593</ele>
        <time>2019-10-21T10:38:26+02:00</time>
      </trkpt>
      <trkpt lat="44.19187" lon="3.09315">
        <ele>599</ele>
        <time>2019-10-21T10:38:31+02:00</time>
      </trkpt>
      <trkpt lat="44.19279" lon="3.09403">
        <ele>605</ele>
        <time>2019-10-21T10:38:36+02:00</time>
      </trkpt>
      <trkpt lat="44.19313" lon="3.09458">
        <ele>610</ele>
        <time>2019-10-21T10:38:41+02:00</time>
      </trkpt>
      <trkpt lat="44.19382" lon="3.09495">
        <ele>607</ele>
        <time>2019-10-21T10:38:46+02:00</time>
      </trkpt>
      <trkpt lat="44.19389" lon="3.09534">
        <ele>606</ele>
        <time>2019-10-21T10:38:51+02:00</time>
      </trkpt>
      <trkpt lat="44.19375" lon="3.09654">
        <ele>601</ele>
        <time>2019-10-21T10:38:56+02:00</time>
      </trkpt>
      <trkpt lat="44.19353" lon="3.09765">
        <ele>603</ele>
        <time>2019-10-21T10:39:01+02:00</time>
      </trkpt>
      <trkpt lat="44.19365" lon="3.09778">
        <ele>602</ele>
        <time>2019-10-21T10:39:06+02:00</time>
      </trkpt>
      <trkpt lat="44.19381" lon="3.09802">
        <ele>602</ele>
        <time>2019-10-21T10:39:11+02:00</time>
      </trkpt>
      <trkpt lat="44.19392" lon="3.0984">
        <ele>605</ele>
        <time>2019-10-21T10:39:16+02:00</time>
      </trkpt>
      <trkpt lat="44.19429" lon="3.09851">
        <ele>607</ele>
        <time>2019-10-21T10:39:21+02:00</time>
      </trkpt>
      <trkpt lat="44.19432" lon="3.09907">
        <ele>612</ele>
        <time>2019-10-21T10:39:26+02:00</time>
      </trkpt>
      <trkpt lat="44.19499" lon="3.10006">
        <ele>624</ele>
        <time>2019-10-21T10:39:31+02:00</time>
      </trkpt>
      <trkpt lat="44.19578" lon="3.10055">
        <ele>615</ele>
        <time>2019-10-21T10:39:36+02:00</time>
      </trkpt>
      <trkpt lat="44.19619" lon="3.10094">
        <ele>606</ele>
        <time>2019-10-21T10:39:41+02:00</time>
      </trkpt>
      <trkpt lat="44.19675" lon="3.10087">
        <ele>602</ele>
        <time>2019-10-21T10:39:46+02:00</time>
      </trkpt>
      <trkpt lat="44.19752" lon="3.10117">
        <ele>594</ele>
        <time>2019-10-21T10:39:51+02:00</time>
      </trkpt>
      <trkpt lat="44.19902" lon="3.09958">
        <ele>595</ele>
        <time>2019-10-21T10:39:56+02:00</time>
      </trkpt>
      <trkpt lat="44.19915" lon="3.09915">
        <ele>594</ele>
        <time>2019-10-21T10:40:01+02:00</time>
      </trkpt>
      <trkpt lat="44.19915" lon="3.09883">
        <ele>592</ele>
        <time>2019-10-21T10:40:06+02:00</time>
      </trkpt>
      <trkpt lat="44.19916" lon="3.09858">
        <ele>591</ele>
        <time>2019-10-21T10:40:11+02:00</time>
      </trkpt>
      <trkpt lat="44.1993" lon="3.09821">
        <ele>589</ele>
        <time>2019-10-21T10:40:16+02:00</time>
      </trkpt>
      <trkpt lat="44.19993" lon="3.09789">
        <ele>590</ele>
        <time>2019-10-21T10:40:21+02:00</time>
      </trkpt>
      <trkpt lat="44.20013" lon="3.09763">
        <ele>591</ele>
        <time>2019-10-21T10:40:26+02:00</time>
      </trkpt>
      <trkpt lat="44.20055" lon="3.09746">
        <ele>597</ele>
        <time>2019-10-21T10:40:31+02:00</time>
      </trkpt>
      <trkpt lat="44.20089" lon="3.09694">
        <ele>603</ele>
        <time>2019-10-21T10:40:36+02:00</time>
      </trkpt>
      <trkpt lat="44.20119" lon="3.09652">
        <ele>607</ele>
        <time>2019-10-21T10:40:41+02:00</time>
      </trkpt>
      <trkpt lat="44.20125" lon="3.09617">
        <ele>609</ele>
        <time>2019-10-21T10:40:46+02:00</time>
      </trkpt>
      <trkpt lat="44.20147" lon="3.09561">
        <ele>612</ele>
        <time>2019-10-21T10:40:51+02:00</time>
      </trkpt>
      <trkpt lat="44.20172" lon="3.09452">
        <ele>615</ele>
        <time>2019-10-21T10:40:56+02:00</time>
      </trkpt>
      <trkpt lat="44.20164" lon="3.09409">
        <ele>614</ele>
        <time>2019-10-21T10:41:01+02:00</time>
      </trkpt>
      <trkpt lat="44.2019" lon="3.0928">
        <ele>608</ele>
        <time>2019-10-21T10:41:06+02:00</time>
      </trkpt>
      <trkpt lat="44.20202" lon="3.09182">
        <ele>602</ele>
        <time>2019-10-21T10:41:11+02:00</time>
      </trkpt>
      <trkpt lat="44.20215" lon="3.0907">
        <ele>596</ele>
        <time>2019-10-21T10:41:16+02:00</time>
      </trkpt>
      <trkpt lat="44.20228" lon="3.08978">
        <ele>590</ele>
        <time>2019-10-21T10:41:21+02:00</time>
      </trkpt>
      <trkpt lat="44.20238" lon="3.08879">
        <ele>585</ele>
        <time>2019-10-21T10:41:26+02:00</time>
      </trkpt>
      <trkpt lat="44.2025" lon="3.08823">
        <ele>585</ele>
        <time>2019-10-21T10:41:31+02:00</time>
      </trkpt>
    </trkseg>
  </trk>
</gpx>